Annadale, South Africa
Current Conditions -  °F | °C
As of 3:01 PM on Wednesday 22 Oct 2014 (Local Time) from FAPP Reporting Station
Few Clouds Few Clouds  
Wind Chill: 70°   Ceiling: Unl
Heat Index: 70°   Visibility: 6mi
Dew Point: 50°   Wind: 12mph
Humidity: 49%   Direction: 30°NNE
Pressure: 30.21"   Gusts: NA
Location:  23.88°S, 29.45°E
Report Text: FAPP 221301Z 03010KT 9999 FEW040 21/10 Q1023 NOSIG
Loading
Personal Weather Stations






























Interactive Weather Map
Tropical Storm Tracking
New forecast layout! Learn more

10-Day Weather Forecast

Advertisements
Track Severe Weather on mobile